首页
METAR-TAF:

METAR-TAF

机场 :

金斯顿, 安大略省, 加拿大

纬度: 44-13N, 经度: 076-36W, 海拔: 93米

当前天气观测

该预报发布于4小时和0分钟前的04:00 UTC
风速17节,风向南转西南,有时为23节阵风
温度 7°C
湿度 93%
气压 997 hPa
能見度: 19.3公里
多云层高于1000英尺
阴天层高于2000英尺

METAR: CYGK 100400Z 20017G23KT 12SM BKN010 OVC020 07/06 A2944 RMK SC6SC2 LAST STFD OBS/NXT 101100Z SLP973

时间: 03:00 (08:00 UTC)

预报

该预报发布于6小时和22分钟前的01:38 UTC
预报有效从10日的 02点(UTC)到 10日的 04点(UTC)
风速15节,风向南转西南,有时为25节阵风
能見度: 10公里
散云层高于500英尺
阴天层高于2000英尺
小雨
短暂存在
从 10日的 02点(UTC)到 10日的 04点(UTC)
能見度: 4.8公里
多云层高于500英尺
阴天层高于1200英尺
小雨, 轻雾

TAF: CYGK 100138Z 1002/1004 20015G25KT P6SM -RA SCT005 OVC020 TEMPO 1002/1004 3SM -RA BR BKN005 OVC012 RMK NXT FCST WILL BE ISSUED AT 101245Z

超过4000个机场的气象观测和天气预报(METAR&TAF报告)。

可查询的气象台以黄色和红色小点在地图上表示。

将鼠标移到小点上方,可查看气象台名称。

然后点击查看天气观测和预报。

如需切换地图:点击带黑十字的绿色按钮放大地图;点击带横线的绿色按钮缩小地图;或者点击绿色箭头查看邻近地区的地图。


METAR-TAF: